sensor_id;sensor_type;location;lat;lon;timestamp;P1;durP1;ratioP1;P2;durP2;ratioP2
9248;SDS011;4660;41.768;26.198;2023-03-19T00:00:47;7.17;;;4.50;;
9248;SDS011;4660;41.768;26.198;2023-03-19T00:03:14;8.10;;;4.40;;
9248;SDS011;4660;41.768;26.198;2023-03-19T00:05:40;9.23;;;4.77;;
9248;SDS011;4660;41.768;26.198;2023-03-19T00:08:06;7.77;;;4.70;;
9248;SDS011;4660;41.768;26.198;2023-03-19T00:10:36;9.23;;;5.70;;
9248;SDS011;4660;41.768;26.198;2023-03-19T00:13:12;6.50;;;4.90;;
9248;SDS011;4660;41.768;26.198;2023-03-19T00:15:39;7.60;;;4.60;;
9248;SDS011;4660;41.768;26.198;2023-03-19T00:18:06;8.53;;;5.27;;
9248;SDS011;4660;41.768;26.198;2023-03-19T00:20:33;8.83;;;5.30;;
9248;SDS011;4660;41.768;26.198;2023-03-19T00:23:01;9.77;;;5.23;;
9248;SDS011;4660;41.768;26.198;2023-03-19T00:25:29;9.37;;;5.23;;
9248;SDS011;4660;41.768;26.198;2023-03-19T00:27:57;11.93;;;5.07;;
9248;SDS011;4660;41.768;26.198;2023-03-19T00:30:22;8.10;;;5.30;;
9248;SDS011;4660;41.768;26.198;2023-03-19T00:32:49;9.40;;;6.13;;
9248;SDS011;4660;41.768;26.198;2023-03-19T00:35:18;8.33;;;5.47;;
9248;SDS011;4660;41.768;26.198;2023-03-19T00:37:46;8.83;;;5.33;;
9248;SDS011;4660;41.768;26.198;2023-03-19T00:40:14;9.60;;;5.90;;
9248;SDS011;4660;41.768;26.198;2023-03-19T00:42:43;13.60;;;5.63;;
9248;SDS011;4660;41.768;26.198;2023-03-19T00:45:10;9.30;;;6.20;;
9248;SDS011;4660;41.768;26.198;2023-03-19T00:47:39;11.00;;;6.63;;
9248;SDS011;4660;41.768;26.198;2023-03-19T00:50:05;10.10;;;5.63;;
9248;SDS011;4660;41.768;26.198;2023-03-19T00:52:32;9.63;;;6.47;;
9248;SDS011;4660;41.768;26.198;2023-03-19T00:55:00;10.73;;;6.23;;
9248;SDS011;4660;41.768;26.198;2023-03-19T00:57:27;7.53;;;5.77;;
9248;SDS011;4660;41.768;26.198;2023-03-19T00:59:54;10.33;;;6.27;;
9248;SDS011;4660;41.768;26.198;2023-03-19T01:02:22;9.33;;;5.80;;
9248;SDS011;4660;41.768;26.198;2023-03-19T01:04:49;11.07;;;6.57;;
9248;SDS011;4660;41.768;26.198;2023-03-19T01:07:15;9.97;;;6.80;;
9248;SDS011;4660;41.768;26.198;2023-03-19T01:09:43;10.47;;;6.57;;
9248;SDS011;4660;41.768;26.198;2023-03-19T01:12:10;8.13;;;5.63;;
9248;SDS011;4660;41.768;26.198;2023-03-19T01:14:36;14.43;;;8.10;;
9248;SDS011;4660;41.768;26.198;2023-03-19T01:17:02;9.03;;;6.23;;
9248;SDS011;4660;41.768;26.198;2023-03-19T01:19:29;13.03;;;6.77;;
9248;SDS011;4660;41.768;26.198;2023-03-19T01:21:58;9.70;;;6.43;;
9248;SDS011;4660;41.768;26.198;2023-03-19T01:24:27;9.30;;;6.30;;
9248;SDS011;4660;41.768;26.198;2023-03-19T01:26:57;11.57;;;6.73;;
9248;SDS011;4660;41.768;26.198;2023-03-19T01:29:24;10.43;;;6.73;;
9248;SDS011;4660;41.768;26.198;2023-03-19T01:31:52;10.60;;;6.50;;
9248;SDS011;4660;41.768;26.198;2023-03-19T01:34:19;12.77;;;6.53;;
9248;SDS011;4660;41.768;26.198;2023-03-19T01:36:46;11.00;;;7.10;;
9248;SDS011;4660;41.768;26.198;2023-03-19T01:39:14;8.87;;;7.00;;
9248;SDS011;4660;41.768;26.198;2023-03-19T01:41:41;11.13;;;7.03;;
9248;SDS011;4660;41.768;26.198;2023-03-19T01:47:24;10.70;;;7.10;;
9248;SDS011;4660;41.768;26.198;2023-03-19T01:50:04;10.93;;;6.17;;
9248;SDS011;4660;41.768;26.198;2023-03-19T01:52:32;10.87;;;7.37;;
9248;SDS011;4660;41.768;26.198;2023-03-19T01:55:04;10.30;;;7.47;;
9248;SDS011;4660;41.768;26.198;2023-03-19T01:57:33;7.97;;;6.13;;
9248;SDS011;4660;41.768;26.198;2023-03-19T02:00:02;10.87;;;6.57;;
9248;SDS011;4660;41.768;26.198;2023-03-19T02:02:34;12.57;;;7.77;;
9248;SDS011;4660;41.768;26.198;2023-03-19T02:05:07;14.60;;;7.60;;
9248;SDS011;4660;41.768;26.198;2023-03-19T02:07:42;11.47;;;7.33;;
9248;SDS011;4660;41.768;26.198;2023-03-19T02:10:13;12.87;;;7.20;;
9248;SDS011;4660;41.768;26.198;2023-03-19T02:12:42;14.80;;;7.57;;
9248;SDS011;4660;41.768;26.198;2023-03-19T02:15:10;12.00;;;8.20;;
9248;SDS011;4660;41.768;26.198;2023-03-19T02:17:42;12.07;;;7.97;;
9248;SDS011;4660;41.768;26.198;2023-03-19T02:20:26;10.47;;;8.70;;
9248;SDS011;4660;41.768;26.198;2023-03-19T02:23:10;14.60;;;9.47;;
9248;SDS011;4660;41.768;26.198;2023-03-19T02:26:12;12.63;;;8.47;;
9248;SDS011;4660;41.768;26.198;2023-03-19T02:28:44;10.53;;;8.40;;
9248;SDS011;4660;41.768;26.198;2023-03-19T02:31:13;13.53;;;9.53;;
9248;SDS011;4660;41.768;26.198;2023-03-19T02:33:39;14.17;;;8.87;;
9248;SDS011;4660;41.768;26.198;2023-03-19T02:36:10;13.30;;;9.30;;
9248;SDS011;4660;41.768;26.198;2023-03-19T02:38:44;16.53;;;9.40;;
9248;SDS011;4660;41.768;26.198;2023-03-19T02:41:12;12.63;;;8.73;;
9248;SDS011;4660;41.768;26.198;2023-03-19T02:43:39;15.23;;;8.87;;
9248;SDS011;4660;41.768;26.198;2023-03-19T02:46:09;11.57;;;8.87;;
9248;SDS011;4660;41.768;26.198;2023-03-19T02:48:40;13.03;;;9.93;;
9248;SDS011;4660;41.768;26.198;2023-03-19T02:51:06;15.13;;;9.57;;
9248;SDS011;4660;41.768;26.198;2023-03-19T02:53:34;15.40;;;9.03;;
9248;SDS011;4660;41.768;26.198;2023-03-19T02:56:01;14.70;;;8.93;;
9248;SDS011;4660;41.768;26.198;2023-03-19T02:58:30;15.10;;;9.10;;
9248;SDS011;4660;41.768;26.198;2023-03-19T03:00:56;14.97;;;9.07;;
9248;SDS011;4660;41.768;26.198;2023-03-19T03:03:24;12.80;;;9.50;;
9248;SDS011;4660;41.768;26.198;2023-03-19T03:05:51;12.00;;;8.67;;
9248;SDS011;4660;41.768;26.198;2023-03-19T03:08:18;10.87;;;8.27;;
9248;SDS011;4660;41.768;26.198;2023-03-19T03:10:46;13.53;;;8.70;;
9248;SDS011;4660;41.768;26.198;2023-03-19T03:13:13;12.30;;;8.80;;
9248;SDS011;4660;41.768;26.198;2023-03-19T03:15:41;12.63;;;8.37;;
9248;SDS011;4660;41.768;26.198;2023-03-19T03:18:08;12.30;;;8.33;;
9248;SDS011;4660;41.768;26.198;2023-03-19T03:20:35;12.03;;;7.57;;
9248;SDS011;4660;41.768;26.198;2023-03-19T03:23:02;11.13;;;8.03;;
9248;SDS011;4660;41.768;26.198;2023-03-19T03:25:28;12.97;;;7.70;;
9248;SDS011;4660;41.768;26.198;2023-03-19T03:27:56;12.90;;;8.40;;
9248;SDS011;4660;41.768;26.198;2023-03-19T03:30:23;16.00;;;9.20;;
9248;SDS011;4660;41.768;26.198;2023-03-19T03:32:50;14.07;;;9.13;;
9248;SDS011;4660;41.768;26.198;2023-03-19T03:35:17;14.50;;;9.43;;
9248;SDS011;4660;41.768;26.198;2023-03-19T03:37:51;14.40;;;8.77;;
9248;SDS011;4660;41.768;26.198;2023-03-19T03:40:18;11.70;;;8.53;;
9248;SDS011;4660;41.768;26.198;2023-03-19T03:42:46;12.70;;;8.63;;
9248;SDS011;4660;41.768;26.198;2023-03-19T03:45:13;12.30;;;8.07;;
9248;SDS011;4660;41.768;26.198;2023-03-19T03:47:40;14.87;;;8.27;;
9248;SDS011;4660;41.768;26.198;2023-03-19T03:50:07;11.37;;;8.23;;
9248;SDS011;4660;41.768;26.198;2023-03-19T03:52:38;16.07;;;7.83;;
9248;SDS011;4660;41.768;26.198;2023-03-19T03:55:04;11.73;;;7.77;;
9248;SDS011;4660;41.768;26.198;2023-03-19T03:57:31;10.77;;;7.03;;
9248;SDS011;4660;41.768;26.198;2023-03-19T03:59:57;13.37;;;8.10;;
9248;SDS011;4660;41.768;26.198;2023-03-19T04:02:24;13.47;;;7.47;;
9248;SDS011;4660;41.768;26.198;2023-03-19T04:04:53;12.33;;;7.93;;
9248;SDS011;4660;41.768;26.198;2023-03-19T04:07:22;16.03;;;8.00;;
9248;SDS011;4660;41.768;26.198;2023-03-19T04:09:47;13.67;;;7.87;;
9248;SDS011;4660;41.768;26.198;2023-03-19T04:12:14;13.37;;;7.87;;
9248;SDS011;4660;41.768;26.198;2023-03-19T04:14:43;12.33;;;7.63;;
9248;SDS011;4660;41.768;26.198;2023-03-19T04:17:11;14.27;;;8.23;;
9248;SDS011;4660;41.768;26.198;2023-03-19T04:19:37;14.00;;;7.53;;
9248;SDS011;4660;41.768;26.198;2023-03-19T04:22:04;11.40;;;7.47;;
9248;SDS011;4660;41.768;26.198;2023-03-19T04:24:33;10.17;;;7.40;;
9248;SDS011;4660;41.768;26.198;2023-03-19T04:27:00;11.63;;;7.57;;
9248;SDS011;4660;41.768;26.198;2023-03-19T04:29:26;15.13;;;8.37;;
9248;SDS011;4660;41.768;26.198;2023-03-19T04:31:53;12.20;;;6.83;;
9248;SDS011;4660;41.768;26.198;2023-03-19T04:34:20;11.23;;;7.67;;
9248;SDS011;4660;41.768;26.198;2023-03-19T04:36:47;10.60;;;7.83;;
9248;SDS011;4660;41.768;26.198;2023-03-19T04:39:14;12.87;;;7.33;;
9248;SDS011;4660;41.768;26.198;2023-03-19T04:41:41;11.47;;;7.27;;
9248;SDS011;4660;41.768;26.198;2023-03-19T04:44:09;12.43;;;8.13;;
9248;SDS011;4660;41.768;26.198;2023-03-19T04:46:35;10.53;;;7.60;;
9248;SDS011;4660;41.768;26.198;2023-03-19T04:49:01;11.77;;;7.20;;
9248;SDS011;4660;41.768;26.198;2023-03-19T04:51:28;11.07;;;7.50;;
9248;SDS011;4660;41.768;26.198;2023-03-19T04:53:55;9.70;;;7.60;;
9248;SDS011;4660;41.768;26.198;2023-03-19T04:56:22;13.80;;;8.00;;
9248;SDS011;4660;41.768;26.198;2023-03-19T04:58:49;12.73;;;7.57;;
9248;SDS011;4660;41.768;26.198;2023-03-19T05:01:16;11.17;;;7.30;;
9248;SDS011;4660;41.768;26.198;2023-03-19T05:03:42;13.77;;;8.17;;
9248;SDS011;4660;41.768;26.198;2023-03-19T05:06:08;11.17;;;7.87;;
9248;SDS011;4660;41.768;26.198;2023-03-19T05:08:35;10.90;;;7.33;;
9248;SDS011;4660;41.768;26.198;2023-03-19T05:11:02;10.90;;;7.63;;
9248;SDS011;4660;41.768;26.198;2023-03-19T05:13:29;12.43;;;7.73;;
9248;SDS011;4660;41.768;26.198;2023-03-19T05:15:56;14.23;;;7.40;;
9248;SDS011;4660;41.768;26.198;2023-03-19T05:18:25;12.70;;;8.13;;
9248;SDS011;4660;41.768;26.198;2023-03-19T05:20:52;11.30;;;8.03;;
9248;SDS011;4660;41.768;26.198;2023-03-19T05:23:21;13.00;;;7.67;;
9248;SDS011;4660;41.768;26.198;2023-03-19T05:25:48;11.17;;;8.03;;
9248;SDS011;4660;41.768;26.198;2023-03-19T05:28:16;13.00;;;7.70;;
9248;SDS011;4660;41.768;26.198;2023-03-19T05:30:43;11.63;;;7.93;;
9248;SDS011;4660;41.768;26.198;2023-03-19T05:33:10;14.87;;;8.00;;
9248;SDS011;4660;41.768;26.198;2023-03-19T05:35:39;13.27;;;8.13;;
9248;SDS011;4660;41.768;26.198;2023-03-19T05:38:06;13.67;;;7.70;;
9248;SDS011;4660;41.768;26.198;2023-03-19T05:40:45;12.00;;;8.07;;
9248;SDS011;4660;41.768;26.198;2023-03-19T05:43:12;12.97;;;8.87;;
9248;SDS011;4660;41.768;26.198;2023-03-19T05:45:39;11.77;;;8.27;;
9248;SDS011;4660;41.768;26.198;2023-03-19T05:48:09;13.83;;;6.80;;
9248;SDS011;4660;41.768;26.198;2023-03-19T05:50:36;12.80;;;8.00;;
9248;SDS011;4660;41.768;26.198;2023-03-19T05:53:02;11.60;;;7.97;;
9248;SDS011;4660;41.768;26.198;2023-03-19T05:55:27;16.80;;;8.97;;
9248;SDS011;4660;41.768;26.198;2023-03-19T05:57:54;12.87;;;9.43;;
9248;SDS011;4660;41.768;26.198;2023-03-19T06:00:22;15.53;;;9.67;;
9248;SDS011;4660;41.768;26.198;2023-03-19T06:02:47;13.30;;;8.90;;
9248;SDS011;4660;41.768;26.198;2023-03-19T06:05:15;15.43;;;9.40;;
9248;SDS011;4660;41.768;26.198;2023-03-19T06:07:42;12.40;;;8.80;;
9248;SDS011;4660;41.768;26.198;2023-03-19T06:10:09;16.43;;;8.73;;
9248;SDS011;4660;41.768;26.198;2023-03-19T06:12:36;20.27;;;8.87;;
9248;SDS011;4660;41.768;26.198;2023-03-19T06:15:02;15.73;;;8.33;;
9248;SDS011;4660;41.768;26.198;2023-03-19T06:17:32;15.77;;;9.87;;
9248;SDS011;4660;41.768;26.198;2023-03-19T06:19:59;11.60;;;8.20;;
9248;SDS011;4660;41.768;26.198;2023-03-19T06:22:27;12.67;;;8.90;;
9248;SDS011;4660;41.768;26.198;2023-03-19T06:24:52;16.67;;;9.20;;
9248;SDS011;4660;41.768;26.198;2023-03-19T06:27:19;13.97;;;9.10;;
9248;SDS011;4660;41.768;26.198;2023-03-19T06:29:47;11.77;;;7.07;;
9248;SDS011;4660;41.768;26.198;2023-03-19T06:32:13;13.80;;;7.67;;
9248;SDS011;4660;41.768;26.198;2023-03-19T06:34:40;10.17;;;7.27;;
9248;SDS011;4660;41.768;26.198;2023-03-19T06:37:07;10.03;;;8.10;;
9248;SDS011;4660;41.768;26.198;2023-03-19T06:39:34;12.93;;;6.87;;
9248;SDS011;4660;41.768;26.198;2023-03-19T06:42:01;11.63;;;7.40;;
9248;SDS011;4660;41.768;26.198;2023-03-19T06:44:29;14.10;;;7.63;;
9248;SDS011;4660;41.768;26.198;2023-03-19T06:46:56;12.53;;;7.23;;
9248;SDS011;4660;41.768;26.198;2023-03-19T06:49:23;8.67;;;6.50;;
9248;SDS011;4660;41.768;26.198;2023-03-19T06:51:51;8.83;;;6.23;;
9248;SDS011;4660;41.768;26.198;2023-03-19T06:54:18;9.03;;;6.90;;
9248;SDS011;4660;41.768;26.198;2023-03-19T06:56:43;9.70;;;6.23;;
9248;SDS011;4660;41.768;26.198;2023-03-19T06:59:12;11.60;;;7.17;;
9248;SDS011;4660;41.768;26.198;2023-03-19T07:01:42;9.83;;;6.70;;
9248;SDS011;4660;41.768;26.198;2023-03-19T07:04:09;13.40;;;9.23;;
9248;SDS011;4660;41.768;26.198;2023-03-19T07:06:54;12.37;;;7.40;;
9248;SDS011;4660;41.768;26.198;2023-03-19T07:09:35;9.27;;;6.70;;
9248;SDS011;4660;41.768;26.198;2023-03-19T07:12:02;8.47;;;5.80;;
9248;SDS011;4660;41.768;26.198;2023-03-19T07:14:29;11.30;;;6.83;;
9248;SDS011;4660;41.768;26.198;2023-03-19T07:16:56;7.40;;;6.27;;
9248;SDS011;4660;41.768;26.198;2023-03-19T07:19:23;8.93;;;5.90;;
9248;SDS011;4660;41.768;26.198;2023-03-19T07:21:51;9.17;;;6.23;;
9248;SDS011;4660;41.768;26.198;2023-03-19T07:24:18;8.70;;;6.03;;
9248;SDS011;4660;41.768;26.198;2023-03-19T07:26:45;8.80;;;5.83;;
9248;SDS011;4660;41.768;26.198;2023-03-19T07:29:11;8.00;;;6.00;;
9248;SDS011;4660;41.768;26.198;2023-03-19T07:31:36;7.13;;;5.50;;
9248;SDS011;4660;41.768;26.198;2023-03-19T07:34:04;10.07;;;5.73;;
9248;SDS011;4660;41.768;26.198;2023-03-19T07:36:32;8.63;;;6.03;;
9248;SDS011;4660;41.768;26.198;2023-03-19T07:39:02;9.27;;;5.47;;
9248;SDS011;4660;41.768;26.198;2023-03-19T07:41:32;10.47;;;6.07;;
9248;SDS011;4660;41.768;26.198;2023-03-19T07:44:11;9.47;;;6.20;;
9248;SDS011;4660;41.768;26.198;2023-03-19T07:46:37;7.43;;;5.20;;
9248;SDS011;4660;41.768;26.198;2023-03-19T07:49:04;8.50;;;5.27;;
9248;SDS011;4660;41.768;26.198;2023-03-19T07:51:31;7.40;;;5.80;;
9248;SDS011;4660;41.768;26.198;2023-03-19T07:54:00;11.07;;;6.00;;
9248;SDS011;4660;41.768;26.198;2023-03-19T07:56:27;8.80;;;5.50;;
9248;SDS011;4660;41.768;26.198;2023-03-19T07:58:54;6.73;;;4.90;;
9248;SDS011;4660;41.768;26.198;2023-03-19T08:01:21;9.50;;;5.77;;
9248;SDS011;4660;41.768;26.198;2023-03-19T08:03:48;7.13;;;5.43;;
9248;SDS011;4660;41.768;26.198;2023-03-19T08:06:15;6.97;;;5.43;;
9248;SDS011;4660;41.768;26.198;2023-03-19T08:08:42;9.80;;;4.67;;
9248;SDS011;4660;41.768;26.198;2023-03-19T08:11:09;7.47;;;4.23;;
9248;SDS011;4660;41.768;26.198;2023-03-19T08:13:34;5.10;;;4.17;;
9248;SDS011;4660;41.768;26.198;2023-03-19T08:16:03;5.90;;;4.67;;
9248;SDS011;4660;41.768;26.198;2023-03-19T08:18:30;8.40;;;4.40;;
9248;SDS011;4660;41.768;26.198;2023-03-19T08:20:57;8.10;;;4.70;;
9248;SDS011;4660;41.768;26.198;2023-03-19T08:23:24;10.23;;;4.80;;
9248;SDS011;4660;41.768;26.198;2023-03-19T08:25:53;6.80;;;4.47;;
9248;SDS011;4660;41.768;26.198;2023-03-19T08:28:22;6.33;;;3.40;;
9248;SDS011;4660;41.768;26.198;2023-03-19T08:30:49;6.73;;;4.23;;
9248;SDS011;4660;41.768;26.198;2023-03-19T08:33:16;6.33;;;4.40;;
9248;SDS011;4660;41.768;26.198;2023-03-19T08:35:43;6.73;;;4.60;;
9248;SDS011;4660;41.768;26.198;2023-03-19T08:38:10;6.33;;;4.67;;
9248;SDS011;4660;41.768;26.198;2023-03-19T08:40:37;6.40;;;3.80;;
9248;SDS011;4660;41.768;26.198;2023-03-19T08:43:04;5.73;;;3.73;;
9248;SDS011;4660;41.768;26.198;2023-03-19T08:45:32;5.33;;;3.37;;
9248;SDS011;4660;41.768;26.198;2023-03-19T08:47:59;10.03;;;5.97;;
9248;SDS011;4660;41.768;26.198;2023-03-19T08:50:26;5.20;;;4.23;;
9248;SDS011;4660;41.768;26.198;2023-03-19T08:52:53;7.03;;;4.47;;
9248;SDS011;4660;41.768;26.198;2023-03-19T08:55:22;5.93;;;4.00;;
9248;SDS011;4660;41.768;26.198;2023-03-19T08:57:48;5.93;;;3.77;;
9248;SDS011;4660;41.768;26.198;2023-03-19T09:00:16;5.63;;;3.43;;
9248;SDS011;4660;41.768;26.198;2023-03-19T09:02:42;6.97;;;3.87;;
9248;SDS011;4660;41.768;26.198;2023-03-19T09:05:10;8.80;;;4.17;;
9248;SDS011;4660;41.768;26.198;2023-03-19T09:07:37;5.67;;;3.77;;
9248;SDS011;4660;41.768;26.198;2023-03-19T09:10:04;5.33;;;3.67;;
9248;SDS011;4660;41.768;26.198;2023-03-19T09:12:33;5.00;;;3.37;;
9248;SDS011;4660;41.768;26.198;2023-03-19T09:14:58;8.10;;;3.80;;
9248;SDS011;4660;41.768;26.198;2023-03-19T09:17:25;9.60;;;4.00;;
9248;SDS011;4660;41.768;26.198;2023-03-19T09:19:52;5.80;;;3.37;;
9248;SDS011;4660;41.768;26.198;2023-03-19T09:22:19;5.23;;;3.10;;
9248;SDS011;4660;41.768;26.198;2023-03-19T09:24:46;4.37;;;3.17;;
9248;SDS011;4660;41.768;26.198;2023-03-19T09:27:12;5.10;;;3.20;;
9248;SDS011;4660;41.768;26.198;2023-03-19T09:29:39;6.33;;;3.40;;
9248;SDS011;4660;41.768;26.198;2023-03-19T09:32:07;6.00;;;3.33;;
9248;SDS011;4660;41.768;26.198;2023-03-19T09:34:38;5.80;;;3.30;;
9248;SDS011;4660;41.768;26.198;2023-03-19T09:37:06;5.30;;;3.10;;
9248;SDS011;4660;41.768;26.198;2023-03-19T09:39:36;5.33;;;3.10;;
9248;SDS011;4660;41.768;26.198;2023-03-19T09:45:13;3.87;;;3.00;;
9248;SDS011;4660;41.768;26.198;2023-03-19T09:47:57;4.63;;;2.57;;
9248;SDS011;4660;41.768;26.198;2023-03-19T09:50:33;4.40;;;2.60;;
9248;SDS011;4660;41.768;26.198;2023-03-19T09:53:17;5.77;;;2.63;;
9248;SDS011;4660;41.768;26.198;2023-03-19T09:56:13;6.20;;;3.10;;
9248;SDS011;4660;41.768;26.198;2023-03-19T09:58:41;2.97;;;2.63;;
9248;SDS011;4660;41.768;26.198;2023-03-19T10:06:52;4.33;;;3.20;;
9248;SDS011;4660;41.768;26.198;2023-03-19T10:12:52;3.10;;;2.77;;
9248;SDS011;4660;41.768;26.198;2023-03-19T10:15:34;3.70;;;3.10;;
9248;SDS011;4660;41.768;26.198;2023-03-19T10:18:25;5.57;;;3.03;;
9248;SDS011;4660;41.768;26.198;2023-03-19T10:21:02;4.13;;;2.63;;
9248;SDS011;4660;41.768;26.198;2023-03-19T10:23:51;4.33;;;3.00;;
9248;SDS011;4660;41.768;26.198;2023-03-19T10:26:33;3.93;;;3.10;;
9248;SDS011;4660;41.768;26.198;2023-03-19T10:29:21;3.10;;;2.80;;
9248;SDS011;4660;41.768;26.198;2023-03-19T10:34:50;2.93;;;2.53;;
9248;SDS011;4660;41.768;26.198;2023-03-19T10:37:23;5.27;;;2.73;;
9248;SDS011;4660;41.768;26.198;2023-03-19T10:39:59;3.33;;;2.30;;
9248;SDS011;4660;41.768;26.198;2023-03-19T10:45:35;2.83;;;2.57;;
9248;SDS011;4660;41.768;26.198;2023-03-19T10:48:03;4.60;;;3.00;;
9248;SDS011;4660;41.768;26.198;2023-03-19T10:53:40;2.83;;;2.63;;
9248;SDS011;4660;41.768;26.198;2023-03-19T10:56:23;3.10;;;2.63;;
9248;SDS011;4660;41.768;26.198;2023-03-19T10:59:09;3.43;;;2.73;;
9248;SDS011;4660;41.768;26.198;2023-03-19T11:02:00;2.23;;;1.97;;
9248;SDS011;4660;41.768;26.198;2023-03-19T11:04:44;3.63;;;2.57;;
9248;SDS011;4660;41.768;26.198;2023-03-19T11:07:13;3.45;;;2.20;;
9248;SDS011;4660;41.768;26.198;2023-03-19T11:09:44;3.67;;;2.50;;
9248;SDS011;4660;41.768;26.198;2023-03-19T11:12:26;2.05;;;1.88;;
9248;SDS011;4660;41.768;26.198;2023-03-19T11:18:28;2.23;;;2.13;;
9248;SDS011;4660;41.768;26.198;2023-03-19T11:21:07;2.87;;;2.20;;
9248;SDS011;4660;41.768;26.198;2023-03-19T11:24:08;3.87;;;2.60;;
9248;SDS011;4660;41.768;26.198;2023-03-19T11:26:39;7.57;;;4.33;;
9248;SDS011;4660;41.768;26.198;2023-03-19T11:29:18;3.50;;;2.67;;
9248;SDS011;4660;41.768;26.198;2023-03-19T11:32:34;3.10;;;2.47;;
9248;SDS011;4660;41.768;26.198;2023-03-19T11:34:51;2.35;;;2.15;;
9248;SDS011;4660;41.768;26.198;2023-03-19T11:38:00;2.63;;;2.27;;
9248;SDS011;4660;41.768;26.198;2023-03-19T11:40:46;3.47;;;2.47;;
9248;SDS011;4660;41.768;26.198;2023-03-19T11:52:03;2.72;;;2.10;;
9248;SDS011;4660;41.768;26.198;2023-03-19T11:55:02;3.30;;;2.30;;
9248;SDS011;4660;41.768;26.198;2023-03-19T11:57:38;2.30;;;2.10;;
9248;SDS011;4660;41.768;26.198;2023-03-19T12:06:18;3.00;;;2.15;;
9248;SDS011;4660;41.768;26.198;2023-03-19T12:35:54;3.55;;;2.80;;
9248;SDS011;4660;41.768;26.198;2023-03-19T12:41:24;4.65;;;3.03;;
9248;SDS011;4660;41.768;26.198;2023-03-19T12:46:55;3.58;;;2.45;;
9248;SDS011;4660;41.768;26.198;2023-03-19T12:49:49;2.63;;;2.42;;
9248;SDS011;4660;41.768;26.198;2023-03-19T12:52:33;3.38;;;2.90;;
9248;SDS011;4660;41.768;26.198;2023-03-19T13:01:23;4.15;;;2.67;;
9248;SDS011;4660;41.768;26.198;2023-03-19T13:06:42;2.47;;;2.25;;
9248;SDS011;4660;41.768;26.198;2023-03-19T13:12:31;2.50;;;2.30;;
9248;SDS011;4660;41.768;26.198;2023-03-19T13:16:08;3.50;;;2.33;;
9248;SDS011;4660;41.768;26.198;2023-03-19T13:23:59;2.60;;;2.40;;
9248;SDS011;4660;41.768;26.198;2023-03-19T13:26:49;2.80;;;2.60;;
9248;SDS011;4660;41.768;26.198;2023-03-19T13:31:49;3.08;;;2.88;;
9248;SDS011;4660;41.768;26.198;2023-03-19T13:34:25;2.55;;;2.35;;
9248;SDS011;4660;41.768;26.198;2023-03-19T13:39:47;2.63;;;2.40;;
9248;SDS011;4660;41.768;26.198;2023-03-19T13:45:33;3.28;;;2.72;;
9248;SDS011;4660;41.768;26.198;2023-03-19T13:51:03;3.45;;;2.92;;
9248;SDS011;4660;41.768;26.198;2023-03-19T13:59:41;5.28;;;3.85;;
9248;SDS011;4660;41.768;26.198;2023-03-19T14:05:07;5.13;;;3.70;;
9248;SDS011;4660;41.768;26.198;2023-03-19T14:07:49;4.22;;;3.20;;
9248;SDS011;4660;41.768;26.198;2023-03-19T14:10:27;6.90;;;4.03;;
9248;SDS011;4660;41.768;26.198;2023-03-19T14:13:04;4.57;;;4.13;;
9248;SDS011;4660;41.768;26.198;2023-03-19T14:15:38;5.22;;;3.92;;
9248;SDS011;4660;41.768;26.198;2023-03-19T14:18:21;4.75;;;4.07;;
9248;SDS011;4660;41.768;26.198;2023-03-19T14:21:03;4.53;;;4.07;;
9248;SDS011;4660;41.768;26.198;2023-03-19T14:23:37;5.05;;;4.15;;
9248;SDS011;4660;41.768;26.198;2023-03-19T14:26:15;4.03;;;3.33;;
9248;SDS011;4660;41.768;26.198;2023-03-19T14:29:06;6.32;;;4.82;;
9248;SDS011;4660;41.768;26.198;2023-03-19T14:31:52;5.80;;;4.30;;
9248;SDS011;4660;41.768;26.198;2023-03-19T14:43:02;5.45;;;4.10;;
9248;SDS011;4660;41.768;26.198;2023-03-19T14:49:34;5.73;;;4.50;;
9248;SDS011;4660;41.768;26.198;2023-03-19T14:54:49;6.28;;;4.60;;
9248;SDS011;4660;41.768;26.198;2023-03-19T14:57:34;4.40;;;3.78;;
9248;SDS011;4660;41.768;26.198;2023-03-19T15:00:03;7.80;;;5.20;;
9248;SDS011;4660;41.768;26.198;2023-03-19T15:05:26;6.30;;;5.00;;
9248;SDS011;4660;41.768;26.198;2023-03-19T15:08:05;5.83;;;4.60;;
9248;SDS011;4660;41.768;26.198;2023-03-19T15:10:43;6.97;;;4.50;;
9248;SDS011;4660;41.768;26.198;2023-03-19T15:19:41;7.53;;;5.43;;
9248;SDS011;4660;41.768;26.198;2023-03-19T15:22:14;8.32;;;5.43;;
9248;SDS011;4660;41.768;26.198;2023-03-19T15:24:46;8.18;;;5.07;;
9248;SDS011;4660;41.768;26.198;2023-03-19T15:27:24;7.63;;;5.47;;
9248;SDS011;4660;41.768;26.198;2023-03-19T15:30:08;5.90;;;4.60;;
9248;SDS011;4660;41.768;26.198;2023-03-19T15:32:54;7.18;;;5.28;;
9248;SDS011;4660;41.768;26.198;2023-03-19T15:35:23;6.47;;;4.50;;
9248;SDS011;4660;41.768;26.198;2023-03-19T15:38:02;5.75;;;4.45;;
9248;SDS011;4660;41.768;26.198;2023-03-19T15:40:35;7.20;;;4.80;;
9248;SDS011;4660;41.768;26.198;2023-03-19T15:43:03;6.40;;;4.97;;
9248;SDS011;4660;41.768;26.198;2023-03-19T15:45:31;7.47;;;5.70;;
9248;SDS011;4660;41.768;26.198;2023-03-19T15:50:48;11.00;;;6.60;;
9248;SDS011;4660;41.768;26.198;2023-03-19T15:53:20;6.03;;;5.18;;
9248;SDS011;4660;41.768;26.198;2023-03-19T15:55:59;7.60;;;5.40;;
9248;SDS011;4660;41.768;26.198;2023-03-19T15:58:29;7.30;;;5.85;;
9248;SDS011;4660;41.768;26.198;2023-03-19T16:01:04;10.95;;;6.10;;
9248;SDS011;4660;41.768;26.198;2023-03-19T16:03:43;8.85;;;6.30;;
9248;SDS011;4660;41.768;26.198;2023-03-19T16:06:24;8.45;;;6.50;;
9248;SDS011;4660;41.768;26.198;2023-03-19T16:09:58;8.32;;;5.80;;
9248;SDS011;4660;41.768;26.198;2023-03-19T16:12:02;7.60;;;5.90;;
9248;SDS011;4660;41.768;26.198;2023-03-19T16:14:41;7.05;;;5.75;;
9248;SDS011;4660;41.768;26.198;2023-03-19T16:17:16;8.53;;;5.50;;
9248;SDS011;4660;41.768;26.198;2023-03-19T16:22:41;8.10;;;5.57;;
9248;SDS011;4660;41.768;26.198;2023-03-19T16:25:36;6.60;;;5.67;;
9248;SDS011;4660;41.768;26.198;2023-03-19T16:28:25;8.30;;;6.50;;
9248;SDS011;4660;41.768;26.198;2023-03-19T16:30:52;11.20;;;7.37;;
9248;SDS011;4660;41.768;26.198;2023-03-19T16:33:19;13.20;;;8.13;;
9248;SDS011;4660;41.768;26.198;2023-03-19T16:45:26;12.73;;;9.50;;
9248;SDS011;4660;41.768;26.198;2023-03-19T16:48:01;14.63;;;8.70;;
9248;SDS011;4660;41.768;26.198;2023-03-19T16:50:40;14.43;;;8.90;;
9248;SDS011;4660;41.768;26.198;2023-03-19T16:53:25;13.20;;;9.67;;
9248;SDS011;4660;41.768;26.198;2023-03-19T16:55:56;16.37;;;10.80;;
9248;SDS011;4660;41.768;26.198;2023-03-19T16:58:40;16.80;;;10.63;;
9248;SDS011;4660;41.768;26.198;2023-03-19T17:01:19;18.60;;;12.50;;
9248;SDS011;4660;41.768;26.198;2023-03-19T17:03:46;17.13;;;13.17;;
9248;SDS011;4660;41.768;26.198;2023-03-19T17:06:15;18.73;;;13.93;;
9248;SDS011;4660;41.768;26.198;2023-03-19T17:08:43;21.23;;;15.90;;
9248;SDS011;4660;41.768;26.198;2023-03-19T17:11:29;22.77;;;16.40;;
9248;SDS011;4660;41.768;26.198;2023-03-19T17:14:02;23.07;;;15.63;;
9248;SDS011;4660;41.768;26.198;2023-03-19T17:16:45;25.60;;;18.00;;
9248;SDS011;4660;41.768;26.198;2023-03-19T17:19:20;22.57;;;14.10;;
9248;SDS011;4660;41.768;26.198;2023-03-19T17:22:17;19.10;;;13.50;;
9248;SDS011;4660;41.768;26.198;2023-03-19T17:24:44;16.77;;;12.07;;
9248;SDS011;4660;41.768;26.198;2023-03-19T17:27:11;12.43;;;9.50;;
9248;SDS011;4660;41.768;26.198;2023-03-19T17:29:37;12.87;;;8.60;;
9248;SDS011;4660;41.768;26.198;2023-03-19T17:32:04;12.17;;;8.33;;
9248;SDS011;4660;41.768;26.198;2023-03-19T17:34:46;14.67;;;9.40;;
9248;SDS011;4660;41.768;26.198;2023-03-19T17:37:13;14.23;;;9.23;;
9248;SDS011;4660;41.768;26.198;2023-03-19T17:39:41;14.47;;;9.27;;
9248;SDS011;4660;41.768;26.198;2023-03-19T17:42:20;13.80;;;8.77;;
9248;SDS011;4660;41.768;26.198;2023-03-19T17:44:51;12.40;;;9.30;;
9248;SDS011;4660;41.768;26.198;2023-03-19T17:47:17;13.87;;;8.87;;
9248;SDS011;4660;41.768;26.198;2023-03-19T17:49:44;16.63;;;10.37;;
9248;SDS011;4660;41.768;26.198;2023-03-19T17:52:17;17.10;;;10.23;;
9248;SDS011;4660;41.768;26.198;2023-03-19T17:54:47;12.73;;;9.30;;